Asert, OR

9:33 AM PDT on August 20, 2014 (GMT -0700)
Hogan and Roberts | Change Station
CLOSE
Current Station
Personal Weather Station
Location: Gresham, OR
Elevation: 384 ft
Nearby Weather Stations

Elev 384 ft 45.49 °N, 122.42 °W | Updated 1 second ago

Overcast
Overcast
62.6 °F
Feels Like 62.6 °F
N
0.0
Wind Variable Wind from SW
Gusts 0.0 mph

Today
High -- | Low -- °F
--% Chance of Precip.
Yesterday
High -- | Low -- °F
Precip. -- in
6:16 AM 8:08 PM
Waning Crescent, 20% visible
Pressure 29.97 in
Visibility 10.0 miles
Clouds Overcast 3500 ft
Dew Point 44 °F
Humidity 50%
Rainfall 0.00 in
Snow Depth 1 in
UV 1 out of 12
Pollen 3.70 out of 12
Ozone Good
PM2.5 Good
Flu Activity Not available.
METAR KTTD 201553Z 00000KT 10SM OVC035 18/10 A2997 RMK AO2 SLP149 T01830100

More Conditions Fewer Conditions

Pressure 29.97 in
Visibility 10.0 miles
Clouds Overcast 3500 ft
Dew Point 44 °F
Humidity 50%
Rainfall 0.00 in
Snow Depth 1 in
UV 1 out of 12
Pollen 3.70 out of 12
Ozone Good
PM2.5 Good
Flu Activity Not available.
METAR KTTD 201553Z 00000KT 10SM OVC035 18/10 A2997 RMK AO2 SLP149 T01830100

More Conditions Fewer Conditions

10-Day Weather Forecast

Almanac

Astronomy

Aug. 20, 2014 Rise Set
Actual Time 6:16 AM PDT 8:08 PM PDT
Civil Twilight 5:44 AM PDT 8:40 PM PDT
Nautical Twilight 5:05 AM PDT 9:18 PM PDT
Astronomical Twilight 4:23 AM PDT 10:01 PM PDT
Moon 1:55 AM PDT 5:02 PM PDT
Length of Visible Light 14h 55m
Length of Day
13h 52m
Tomorrow will be 2m 56s shorter.
Waning Crescent, 20% of the Moon is Illuminated
Today
Waning Crescent
Aug 25
New
Sep 2
First Quarter
Sep 8
Full
Sep 15
Last Quarter

Today's Extremes

State Highs State Lows

Community

WunderPhotos

Upload Photos

1,745,689 photos uploaded!

Nearby

Air Quality

  Air Quality AQ Index Pollutant
Yesterday Good
OZONE
Yesterday Good
PM2.5
Current Good
PM2.5
Current Good
OZONE
Wednesday Good
PM2.5

Snow Depth

Station Depth Elevation
North Fork 1 in 3120 ft
Blazed Alder 0 in 3650 ft
Red Hill 0 in 4400 ft
Greenpoint 1 in 3200 ft
Mud Ridge 1 in 3800 ft

Earthquake Activity

City Distance Mag. Time & Date
No recent earthquake activity has been reported nearby.
Minimum magnitude displayed is 2.5.

Coastal Water Temperatures

Place Temperature
No Stations Reporting

Nearby Weather Stations